Time;durP1;ratioP1;P1;durP2;ratioP2;P2;SDS_P1;SDS_P2;PMS_P1;PMS_P2;Temp;Humidity;BMP_temperature;BMP_pressure;BME280_temperature;BME280_humidity;BME280_pressure;Samples;Min_cycle;Max_cycle;Signal;HPM_P1;HPM_P2
2022/08/21 00:00:50;;;;;;;11.60;4.63;;;;;;;24.22;70.51;99006.13;5052301;28;20029;-42
2022/08/21 00:03:16;;;;;;;10.52;4.45;;;;;;;23.78;72.40;99016.72;5052113;28;20415;-42
2022/08/21 00:05:49;;;;;;;7.70;4.30;;;;;;;23.76;74.87;99037.91;5052110;28;20096;-42
2022/08/21 00:08:16;;;;;;;9.50;4.57;;;;;;;23.86;73.37;99047.75;5051890;28;20542;-42
2022/08/21 00:10:43;;;;;;;11.48;4.60;;;;;;;24.14;70.67;99048.44;5051709;28;20115;-42
2022/08/21 00:13:09;;;;;;;11.30;4.70;;;;;;;24.19;70.67;99023.81;5051935;28;20096;-43
2022/08/21 00:15:36;;;;;;;9.02;4.25;;;;;;;24.89;67.95;99024.16;5052202;28;20051;-42
2022/08/21 00:18:03;;;;;;;10.88;4.50;;;;;;;25.17;66.27;99021.19;5052032;28;20033;-43
2022/08/21 00:20:29;;;;;;;9.98;4.25;;;;;;;24.17;70.41;99019.81;5051723;28;20029;-43
2022/08/21 00:22:54;;;;;;;8.80;4.90;;;;;;;24.00;71.22;99009.66;5051341;28;20017;-43
2022/08/21 00:25:20;;;;;;;12.93;4.40;;;;;;;24.11;70.93;99011.00;5051639;28;20492;-42
2022/08/21 00:27:46;;;;;;;9.05;4.30;;;;;;;24.13;70.47;99014.22;5051604;28;20025;-43
2022/08/21 00:30:15;;;;;;;12.27;4.72;;;;;;;24.72;68.29;99008.59;5051763;28;20017;-43
2022/08/21 00:32:41;;;;;;;10.65;5.20;;;;;;;24.09;71.74;99001.56;5049699;28;20033;-41
2022/08/21 00:35:11;;;;;;;8.98;4.15;;;;;;;23.87;70.50;99008.59;5051683;28;20044;-42
2022/08/21 00:37:38;;;;;;;9.52;4.32;;;;;;;23.64;70.40;99007.78;5051604;28;20020;-42
2022/08/21 00:40:06;;;;;;;9.05;4.65;;;;;;;23.86;70.50;99008.94;5051601;28;20039;-42
2022/08/21 00:42:32;;;;;;;9.68;4.35;;;;;;;24.67;67.45;99007.91;5051407;28;20093;-42
2022/08/21 00:44:58;;;;;;;9.77;4.40;;;;;;;24.16;70.06;99007.34;5051197;28;20029;-42
2022/08/21 00:47:23;;;;;;;6.65;4.03;;;;;;;23.81;70.90;98990.84;5050643;28;20029;-48
2022/08/21 00:49:49;;;;;;;9.68;4.18;;;;;;;23.69;70.19;98968.84;5050576;28;20028;-48
2022/08/21 00:52:22;;;;;;;7.88;4.03;;;;;;;23.81;72.55;98979.97;5050377;28;20063;-48
2022/08/21 00:54:50;;;;;;;9.25;4.22;;;;;;;24.59;69.17;99002.13;5050786;28;20048;-48
2022/08/21 00:57:20;;;;;;;11.15;4.57;;;;;;;24.19;69.68;99002.09;5050662;28;20059;-48
2022/08/21 00:59:51;;;;;;;12.10;4.50;;;;;;;23.96;70.66;98997.81;5051266;28;20021;-48
2022/08/21 01:02:17;;;;;;;8.80;4.15;;;;;;;24.11;70.03;99002.84;5050575;28;20447;-48
2022/08/21 01:04:43;;;;;;;11.40;4.45;;;;;;;24.15;69.68;99003.03;5050076;28;20021;-48
2022/08/21 01:07:09;;;;;;;10.27;4.50;;;;;;;24.87;66.65;99006.56;5050215;28;20091;-47
2022/08/21 01:09:35;;;;;;;10.25;5.18;;;;;;;23.94;71.35;98998.09;5050402;28;20021;-48
2022/08/21 01:12:02;;;;;;;10.70;4.38;;;;;;;23.86;72.84;98976.34;5050088;28;20109;-48
2022/08/21 01:14:28;;;;;;;9.15;4.53;;;;;;;23.92;71.64;98972.38;5050904;28;20052;-47
2022/08/21 01:16:55;;;;;;;7.82;5.10;;;;;;;23.61;72.54;98970.38;5050929;28;20037;-48
2022/08/21 01:19:22;;;;;;;8.63;5.18;;;;;;;24.45;68.46;98974.22;5050008;28;20029;-48
2022/08/21 01:21:48;;;;;;;10.93;4.75;;;;;;;23.66;70.29;98950.44;5060196;28;20176;-48
2022/08/21 01:24:14;;;;;;;10.85;5.82;;;;;;;23.65;72.42;98955.09;5070415;28;20028;-48
2022/08/21 01:26:42;;;;;;;10.48;5.25;;;;;;;23.75;73.64;98952.09;5070298;28;20032;-49
2022/08/21 01:29:27;;;;;;;11.05;5.32;;;;;;;23.80;73.80;98953.94;5069967;28;20641;-49
2022/08/21 01:31:52;;;;;;;10.05;5.57;;;;;;;24.28;71.07;98950.50;5070035;28;20028;-44
2022/08/21 01:34:19;;;;;;;12.15;5.43;;;;;;;23.88;73.41;98941.50;5070552;28;20101;-44
2022/08/21 01:36:46;;;;;;;11.90;5.47;;;;;;;23.74;73.68;98945.06;5070021;28;20036;-45
2022/08/21 01:39:13;;;;;;;13.32;6.05;;;;;;;23.81;73.39;98937.31;5070468;28;20082;-46
2022/08/21 01:41:38;;;;;;;12.80;6.43;;;;;;;23.93;73.21;98938.66;5070103;28;20036;-43
2022/08/21 01:44:04;;;;;;;10.63;6.28;;;;;;;24.35;71.27;98950.03;5070242;28;20040;-43
2022/08/21 01:46:30;;;;;;;13.07;6.20;;;;;;;23.86;73.39;98939.09;5070054;28;20024;-44
2022/08/21 01:48:56;;;;;;;11.65;6.28;;;;;;;23.85;73.88;98961.13;5069559;28;20407;-44
2022/08/21 01:51:21;;;;;;;10.25;5.68;;;;;;;24.08;73.14;98957.25;5070248;28;20024;-45
2022/08/21 01:53:47;;;;;;;9.80;5.38;;;;;;;24.27;71.73;98967.09;5070490;28;20107;-43
2022/08/21 01:56:14;;;;;;;9.07;5.32;;;;;;;24.64;69.79;98989.53;5070420;28;20027;-43
2022/08/21 01:58:41;;;;;;;6.85;5.05;;;;;;;23.94;72.75;99008.97;5070126;28;20110;-42
2022/08/21 02:01:07;;;;;;;11.07;5.07;;;;;;;23.85;72.68;99020.91;5070208;28;20032;-44
2022/08/21 02:03:32;;;;;;;11.40;5.68;;;;;;;23.90;72.61;99023.50;5069706;28;20112;-43
2022/08/21 02:05:58;;;;;;;10.98;5.47;;;;;;;24.05;72.08;99034.00;5070154;28;20454;-42
2022/08/21 02:08:24;;;;;;;12.70;6.20;;;;;;;24.29;71.42;99036.34;5069784;28;20495;-43
2022/08/21 02:10:50;;;;;;;11.30;5.63;;;;;;;23.94;73.31;99027.19;5069152;28;20425;-42
2022/08/21 02:13:17;;;;;;;8.95;5.22;;;;;;;23.99;72.90;99027.09;5070056;28;20024;-44
2022/08/21 02:15:43;;;;;;;10.15;5.43;;;;;;;24.15;70.68;99028.28;5070176;28;20048;-41
2022/08/21 02:18:09;;;;;;;9.60;5.35;;;;;;;24.18;70.67;99027.69;5070084;28;20039;-42
2022/08/21 02:20:38;;;;;;;10.10;5.20;;;;;;;24.49;69.20;99029.59;5051261;28;20041;-45
2022/08/21 02:23:05;;;;;;;9.20;4.85;;;;;;;24.02;69.53;99020.22;5069964;28;20028;-42
2022/08/21 02:25:31;;;;;;;9.18;5.05;;;;;;;23.98;70.60;99030.91;5069475;28;20020;-42
2022/08/21 02:27:58;;;;;;;9.77;5.25;;;;;;;23.91;72.82;99034.06;5069497;28;20135;-42
2022/08/21 02:30:28;;;;;;;10.93;5.30;;;;;;;24.17;71.29;99039.66;5069526;28;20031;-43
2022/08/21 02:32:53;;;;;;;8.43;5.20;;;;;;;24.45;69.71;99052.28;5069377;28;20028;-43
2022/08/21 02:35:20;;;;;;;10.88;5.28;;;;;;;23.94;72.44;99051.66;5069897;28;20028;-44
2022/08/21 02:38:00;;;;;;;11.75;5.75;;;;;;;23.89;72.21;99038.19;5069922;28;20120;-43
2022/08/21 02:40:32;;;;;;;9.73;6.05;;;;;;;23.91;71.84;99055.81;5069424;28;20021;-45
2022/08/21 02:43:02;;;;;;;11.07;5.50;;;;;;;24.29;70.67;99058.09;5069552;28;20138;-42
2022/08/21 02:45:28;;;;;;;8.82;5.55;;;;;;;24.30;71.49;99058.91;5069611;28;20052;-42
2022/08/21 02:48:00;;;;;;;11.15;5.88;;;;;;;23.99;72.52;99062.41;5069702;28;20040;-43
2022/08/21 02:50:32;;;;;;;12.30;5.43;;;;;;;23.69;72.88;99056.53;5069045;28;20507;-43
2022/08/21 02:52:57;;;;;;;7.60;5.20;;;;;;;23.78;72.49;99046.59;5069130;28;20039;-42
2022/08/21 02:55:26;;;;;;;7.20;4.75;;;;;;;24.23;70.43;99045.75;5069817;28;20017;-42
2022/08/21 02:57:52;;;;;;;11.70;5.65;;;;;;;23.96;72.01;99050.22;5069898;28;20071;-45
2022/08/21 03:00:20;;;;;;;9.80;5.70;;;;;;;23.68;73.52;99048.69;5069926;28;20480;-43
2022/08/21 03:02:46;;;;;;;11.00;5.50;;;;;;;23.76;72.46;99042.53;5068902;28;20039;-43
2022/08/21 03:05:14;;;;;;;9.30;5.28;;;;;;;23.93;72.27;99037.28;5069203;28;20032;-41
2022/08/21 03:07:40;;;;;;;8.93;5.40;;;;;;;24.34;69.89;99041.66;5069035;28;20074;-44
2022/08/21 03:10:07;;;;;;;10.55;5.60;;;;;;;24.20;71.63;99043.69;5068819;28;20407;-43
2022/08/21 03:12:32;;;;;;;8.13;5.75;;;;;;;23.87;71.68;99033.06;5068855;28;20020;-46
2022/08/21 03:14:58;;;;;;;8.82;5.82;;;;;;;23.86;73.37;99055.91;5069359;28;20048;-44
2022/08/21 03:17:24;;;;;;;9.38;5.80;;;;;;;23.98;72.73;99069.72;5069372;28;20028;-44
2022/08/21 03:19:50;;;;;;;8.60;5.68;;;;;;;24.44;70.74;99066.97;5056666;28;20381;-43
2022/08/21 03:22:15;;;;;;;11.57;5.90;;;;;;;24.36;70.15;99057.66;5065822;28;20107;-45
2022/08/21 03:24:40;;;;;;;7.90;5.80;;;;;;;23.87;71.82;99054.00;5072903;28;20393;-49
2022/08/21 03:27:06;;;;;;;13.10;6.03;;;;;;;23.73;74.08;99062.97;5073323;28;20098;-44
2022/08/21 03:29:31;;;;;;;11.55;5.88;;;;;;;23.75;74.00;99063.47;5073249;28;20040;-44
2022/08/21 03:31:57;;;;;;;10.77;6.20;;;;;;;24.32;70.68;99059.41;5072854;28;20020;-44
2022/08/21 03:34:22;;;;;;;10.30;6.43;;;;;;;24.02;72.91;99061.78;5073180;28;20062;-45
2022/08/21 03:36:48;;;;;;;12.65;6.72;;;;;;;23.68;74.68;99065.78;5073054;28;20429;-43
2022/08/21 03:39:15;;;;;;;12.18;6.55;;;;;;;23.57;75.62;99056.28;5073126;28;20028;-44
2022/08/21 03:41:41;;;;;;;12.93;6.03;;;;;;;23.72;74.20;99068.69;5073207;28;20575;-43
2022/08/21 03:44:06;;;;;;;11.25;6.07;;;;;;;24.26;71.95;99060.66;5072518;28;20112;-43
2022/08/21 03:46:32;;;;;;;10.25;5.70;;;;;;;23.69;70.84;99070.13;5072470;28;20016;-44
2022/08/21 03:48:57;;;;;;;12.80;6.07;;;;;;;23.24;74.10;99070.03;5071834;28;20040;-44
2022/08/21 03:51:23;;;;;;;12.93;6.10;;;;;;;23.48;74.34;99066.28;5072275;28;20483;-44
2022/08/21 03:53:48;;;;;;;11.15;6.32;;;;;;;23.43;74.16;99067.97;5072512;28;20107;-42
2022/08/21 03:56:15;;;;;;;10.75;6.30;;;;;;;24.08;71.74;99071.41;5072439;28;20020;-43
2022/08/21 03:58:41;;;;;;;10.73;5.80;;;;;;;23.57;74.23;99078.00;5072723;28;20171;-44
2022/08/21 04:01:06;;;;;;;10.48;5.95;;;;;;;23.46;74.33;99076.63;5072942;28;20025;-43
2022/08/21 04:03:34;;;;;;;10.60;6.50;;;;;;;23.61;73.88;99079.00;5071307;28;20024;-44
2022/08/21 04:05:59;;;;;;;11.23;6.22;;;;;;;23.79;72.50;99075.34;5072555;28;20043;-51
2022/08/21 04:08:25;;;;;;;12.98;6.47;;;;;;;24.23;70.43;99075.66;5072443;28;20475;-44
2022/08/21 04:10:55;;;;;;;11.75;6.75;;;;;;;23.57;73.99;99080.72;5072608;28;20028;-44
2022/08/21 04:13:21;;;;;;;12.65;6.80;;;;;;;23.11;76.92;99076.25;5072486;28;20039;-46
2022/08/21 04:15:47;;;;;;;9.93;6.63;;;;;;;22.96;77.66;99077.34;5072598;28;20059;-46
2022/08/21 04:18:12;;;;;;;16.10;6.80;;;;;;;23.19;76.96;99075.56;5072289;28;20108;-46
2022/08/21 04:20:40;;;;;;;10.85;6.63;;;;;;;23.91;73.30;99074.00;5053524;28;20108;-44
2022/08/21 04:23:06;;;;;;;10.23;6.70;;;;;;;23.60;75.70;99082.81;5072341;28;20043;-44
2022/08/21 04:25:32;;;;;;;11.30;6.60;;;;;;;23.47;75.76;99075.50;5072415;28;20021;-43
2022/08/21 04:27:58;;;;;;;12.52;6.90;;;;;;;23.60;75.92;99077.38;5071848;28;20032;-46
2022/08/21 04:30:23;;;;;;;9.48;6.90;;;;;;;23.69;75.94;99074.75;5072251;28;20373;-44
2022/08/21 04:32:50;;;;;;;12.88;7.15;;;;;;;24.25;72.73;99080.78;5071040;28;20044;-44
2022/08/21 04:35:20;;;;;;;12.32;6.93;;;;;;;23.98;73.69;99072.44;5072144;28;20404;-46
2022/08/21 04:37:46;;;;;;;13.63;7.18;;;;;;;23.66;75.87;99073.44;5071873;28;20028;-46
2022/08/21 04:40:14;;;;;;;11.27;6.95;;;;;;;23.75;75.20;99063.47;5072099;28;20025;-45
2022/08/21 04:42:51;;;;;;;12.60;7.13;;;;;;;23.76;74.94;99059.66;5071791;28;20383;-44
2022/08/21 04:45:28;;;;;;;12.52;7.57;;;;;;;24.34;72.13;99059.91;5071601;28;20012;-42
2022/08/21 04:47:57;;;;;;;13.35;7.18;;;;;;;23.78;75.58;99056.63;5071290;28;20029;-43
2022/08/21 04:50:36;;;;;;;10.50;6.70;;;;;;;23.61;76.56;99058.09;5071000;28;20020;-44
2022/08/21 04:53:03;;;;;;;11.07;7.05;;;;;;;23.50;76.31;99050.47;5071829;28;20341;-43
2022/08/21 04:55:29;;;;;;;13.23;7.03;;;;;;;23.61;76.11;99055.38;5071808;28;20017;-44
2022/08/21 04:57:56;;;;;;;11.23;7.13;;;;;;;24.13;73.40;99044.09;5071708;28;20021;-43
2022/08/21 05:00:24;;;;;;;10.95;7.43;;;;;;;23.63;75.23;99036.06;5071602;28;20387;-43
2022/08/21 05:02:54;;;;;;;9.93;7.40;;;;;;;23.56;75.84;99047.31;5071425;28;20533;-45
2022/08/21 05:05:19;;;;;;;11.48;8.00;;;;;;;23.53;75.84;99050.69;5071193;28;20400;-42
2022/08/21 05:07:45;;;;;;;10.07;7.70;;;;;;;23.61;75.81;99049.94;5071317;28;20025;-43
2022/08/21 05:10:13;;;;;;;14.65;7.72;;;;;;;24.22;73.22;99048.78;5070991;28;20024;-43
2022/08/21 05:12:41;;;;;;;12.07;8.20;;;;;;;23.84;74.45;99043.72;5071001;28;20119;-43
2022/08/21 05:15:08;;;;;;;12.77;7.32;;;;;;;23.54;73.78;99041.41;5071064;28;20127;-44
2022/08/21 05:17:33;;;;;;;14.98;7.28;;;;;;;23.67;72.54;99034.31;5071352;28;20024;-43
2022/08/21 05:19:58;;;;;;;13.52;6.50;;;;;;;23.65;71.47;99036.56;5057365;28;20027;-43
2022/08/21 05:22:25;;;;;;;14.07;6.72;;;;;;;23.96;69.58;99022.25;5065026;28;20029;-43
2022/08/21 05:24:51;;;;;;;12.52;7.05;;;;;;;23.76;71.23;99027.06;5070709;28;20082;-43
2022/08/21 05:27:16;;;;;;;15.75;6.72;;;;;;;23.43;73.35;99027.25;5059718;28;20040;-45
2022/08/21 05:29:42;;;;;;;11.13;6.85;;;;;;;23.55;73.13;99024.00;5039821;28;20021;-42
2022/08/21 05:32:13;;;;;;;12.57;7.18;;;;;;;23.79;73.62;99025.66;5043450;28;20036;-45
2022/08/21 05:34:39;;;;;;;10.95;6.55;;;;;;;24.26;70.92;99019.88;5048970;28;20020;-44
2022/08/21 05:37:05;;;;;;;12.27;6.93;;;;;;;24.02;71.64;99031.88;5050797;28;20013;-43
2022/08/21 05:39:31;;;;;;;12.13;7.13;;;;;;;23.88;72.31;99033.88;5050178;28;20123;-43
2022/08/21 05:41:57;;;;;;;10.50;6.40;;;;;;;23.78;72.20;99038.44;5050389;28;20480;-43
2022/08/21 05:44:22;;;;;;;13.43;6.60;;;;;;;23.81;71.71;99031.56;5049045;28;20013;-41
2022/08/21 05:46:48;;;;;;;12.20;6.55;;;;;;;24.47;69.11;99039.19;5050147;28;20021;-43
2022/08/21 05:49:13;;;;;;;9.95;6.88;;;;;;;24.15;72.34;99047.31;5049625;28;20025;-43
2022/08/21 05:51:41;;;;;;;13.00;6.50;;;;;;;23.95;73.94;99042.38;5049951;28;20021;-43
2022/08/21 05:54:07;;;;;;;13.30;6.72;;;;;;;23.99;73.48;99035.25;5049930;28;20035;-44
2022/08/21 05:56:32;;;;;;;13.55;6.70;;;;;;;24.01;73.64;99038.44;5050267;28;20016;-46
2022/08/21 05:58:58;;;;;;;12.15;6.40;;;;;;;24.61;69.69;99049.97;5050194;28;20020;-45
2022/08/21 06:01:23;;;;;;;11.35;6.68;;;;;;;24.53;70.27;99055.06;5050392;28;20039;-42
2022/08/21 06:03:49;;;;;;;11.85;9.30;;;;;;;24.25;72.54;99053.59;5049612;28;20484;-42
2022/08/21 06:06:15;;;;;;;14.38;7.20;;;;;;;24.24;72.84;99060.13;5050301;28;20013;-44
2022/08/21 06:08:41;;;;;;;11.43;7.93;;;;;;;24.40;72.23;99059.44;5049678;28;20086;-43
2022/08/21 06:11:07;;;;;;;11.65;6.95;;;;;;;24.46;72.17;99065.56;5049866;28;20020;-43
2022/08/21 06:13:33;;;;;;;9.85;7.25;;;;;;;24.68;69.69;99070.19;5049206;28;20013;-47
2022/08/21 06:16:11;;;;;;;11.18;7.25;;;;;;;25.23;65.05;99074.38;5049333;28;20041;-46
2022/08/21 06:18:38;;;;;;;12.07;7.72;;;;;;;25.48;65.86;99067.38;5034332;28;20113;-46
2022/08/21 06:21:03;;;;;;;13.98;8.32;;;;;;;24.75;70.23;99056.94;5049536;28;20021;-43
2022/08/21 06:23:29;;;;;;;14.65;8.80;;;;;;;24.41;71.87;99062.97;5049392;28;20040;-45
2022/08/21 06:25:54;;;;;;;14.55;7.82;;;;;;;24.35;71.58;99069.66;5048690;28;20032;-42
2022/08/21 06:28:20;;;;;;;12.35;6.95;;;;;;;24.62;70.29;99068.72;5048661;28;20048;-42
2022/08/21 06:30:46;;;;;;;13.07;6.90;;;;;;;25.17;67.69;99057.38;5048714;28;20100;-46
2022/08/21 06:33:11;;;;;;;12.13;6.72;;;;;;;24.67;70.73;99063.13;5048480;28;20024;-44
2022/08/21 06:35:37;;;;;;;13.55;8.98;;;;;;;24.46;70.83;99060.13;5048852;28;20127;-43
2022/08/21 06:38:03;;;;;;;10.93;6.25;;;;;;;24.44;70.47;99058.81;5048760;28;20488;-43
2022/08/21 06:40:29;;;;;;;11.82;7.15;;;;;;;24.70;70.20;99065.22;5048372;28;20384;-47
2022/08/21 06:42:57;;;;;;;12.55;6.78;;;;;;;24.72;69.84;99059.47;5048299;28;20029;-46
2022/08/21 06:45:22;;;;;;;10.35;6.40;;;;;;;25.20;68.16;99055.94;5048189;28;20056;-43
2022/08/21 06:47:48;;;;;;;8.45;6.20;;;;;;;25.51;66.28;99044.97;5048116;28;20064;-43
2022/08/21 06:50:13;;;;;;;10.63;6.60;;;;;;;25.11;68.36;99046.94;5048577;28;20066;-44
2022/08/21 06:52:39;;;;;;;10.32;6.70;;;;;;;24.88;69.12;99046.22;5047855;28;20035;-43
2022/08/21 06:55:07;;;;;;;12.02;6.68;;;;;;;24.76;69.87;99041.41;5049147;28;20074;-44
2022/08/21 06:57:33;;;;;;;12.82;6.65;;;;;;;25.12;68.17;99032.22;5047997;28;20021;-42
2022/08/21 06:59:58;;;;;;;12.68;7.40;;;;;;;24.98;67.54;99038.59;5048773;28;20458;-44
2022/08/21 07:02:23;;;;;;;14.50;6.15;;;;;;;25.68;63.41;99024.28;5048845;28;20021;-42
2022/08/21 07:04:49;;;;;;;12.70;7.15;;;;;;;25.25;66.80;99036.75;5047986;28;20063;-42
2022/08/21 07:07:14;;;;;;;12.63;6.70;;;;;;;25.02;68.88;99037.94;5047740;28;20033;-43
2022/08/21 07:09:40;;;;;;;15.15;9.02;;;;;;;25.07;69.25;99030.44;5047954;28;20021;-44
2022/08/21 07:12:06;;;;;;;12.98;7.43;;;;;;;25.12;68.47;99019.41;5047703;28;20025;-44
2022/08/21 07:14:31;;;;;;;12.07;7.18;;;;;;;25.95;65.35;99028.63;5048261;28;20149;-43
2022/08/21 07:16:58;;;;;;;12.57;6.38;;;;;;;25.26;68.00;99030.19;5048410;28;20049;-42
2022/08/21 07:19:23;;;;;;;11.25;6.22;;;;;;;25.12;67.99;99024.06;5048444;28;20449;-43
2022/08/21 07:21:49;;;;;;;12.80;7.68;;;;;;;25.02;68.10;99030.59;5048191;28;20112;-43
2022/08/21 07:24:14;;;;;;;11.88;7.65;;;;;;;25.18;66.60;99030.94;5044111;28;20029;-42
2022/08/21 07:26:40;;;;;;;12.32;6.88;;;;;;;26.02;64.29;99026.19;5031836;28;20033;-44
2022/08/21 07:29:06;;;;;;;15.20;8.68;;;;;;;25.50;65.81;99028.94;5027692;28;20025;-43
2022/08/21 07:31:32;;;;;;;17.13;8.38;;;;;;;25.44;66.50;99027.50;5028020;28;20033;-43
2022/08/21 07:33:57;;;;;;;13.82;7.43;;;;;;;25.49;65.94;99021.88;5028099;28;20358;-45
2022/08/21 07:36:23;;;;;;;11.35;7.88;;;;;;;25.46;65.79;99026.03;5028809;28;20021;-46
2022/08/21 07:38:49;;;;;;;15.00;7.68;;;;;;;26.33;62.88;99019.69;5028055;28;20120;-44
2022/08/21 07:41:17;;;;;;;21.45;8.65;;;;;;;25.79;65.04;99011.91;5028163;28;20029;-43
2022/08/21 07:43:44;;;;;;;16.08;9.38;;;;;;;25.72;65.44;99008.88;5027889;28;20053;-43
2022/08/21 07:46:10;;;;;;;13.73;7.72;;;;;;;25.72;66.20;99004.25;5026690;28;20025;-43
2022/08/21 07:48:35;;;;;;;12.57;7.57;;;;;;;25.81;66.03;99011.59;5026851;28;20017;-44
2022/08/21 07:51:07;;;;;;;15.52;7.80;;;;;;;26.49;62.74;99015.31;5027148;28;20021;-42
2022/08/21 07:53:33;;;;;;;15.60;10.93;;;;;;;25.92;64.70;99018.34;5027377;28;20064;-42
2022/08/21 07:55:58;;;;;;;14.95;8.73;;;;;;;25.74;66.03;99009.34;5028460;28;20049;-43
2022/08/21 07:58:24;;;;;;;15.30;8.85;;;;;;;25.72;65.78;99028.78;5028090;28;20056;-46
2022/08/21 08:00:49;;;;;;;11.00;8.00;;;;;;;25.90;65.37;99018.66;5028315;28;20088;-42
2022/08/21 08:03:15;;;;;;;10.95;7.95;;;;;;;26.23;63.51;99026.28;5028612;28;20057;-41
2022/08/21 08:05:40;;;;;;;14.60;7.22;;;;;;;26.12;64.12;99025.84;5028221;28;20581;-42
2022/08/21 08:08:06;;;;;;;12.77;7.32;;;;;;;25.74;65.18;99034.69;5028968;28;20027;-42
2022/08/21 08:10:31;;;;;;;12.88;7.60;;;;;;;25.67;65.82;99017.22;5031331;28;20021;-43
2022/08/21 08:12:57;;;;;;;15.63;7.90;;;;;;;25.79;65.75;99022.81;5030385;28;20021;-42
2022/08/21 08:15:25;;;;;;;17.98;7.90;;;;;;;26.03;64.18;99016.91;5030688;28;20042;-42
2022/08/21 08:17:52;;;;;;;16.17;9.60;;;;;;;25.93;64.04;99012.59;5030910;28;20065;-42
2022/08/21 08:20:19;;;;;;;16.23;9.32;;;;;;;25.80;65.59;99013.53;5046654;28;20025;-43
2022/08/21 08:22:45;;;;;;;12.50;7.30;;;;;;;25.83;65.52;99012.09;5050060;28;20033;-42
2022/08/21 08:25:13;;;;;;;11.32;6.57;;;;;;;25.96;64.47;99002.97;5050025;28;20032;-42
2022/08/21 08:27:39;;;;;;;10.23;6.63;;;;;;;26.45;62.90;99019.03;5049436;28;20051;-41
2022/08/21 08:30:06;;;;;;;10.95;6.38;;;;;;;26.37;63.14;99015.19;5049359;28;20071;-41
2022/08/21 08:32:32;;;;;;;18.13;6.97;;;;;;;25.99;63.77;99012.41;5047878;28;20025;-43
2022/08/21 08:34:57;;;;;;;11.55;6.88;;;;;;;25.65;64.33;98997.69;5050569;28;20025;-43
2022/08/21 08:37:23;;;;;;;9.95;6.57;;;;;;;26.08;63.73;99010.47;5050734;28;20685;-42
2022/08/21 08:39:49;;;;;;;15.23;7.60;;;;;;;26.42;61.68;98995.13;5048918;28;20052;-44
2022/08/21 08:42:29;;;;;;;12.50;7.55;;;;;;;26.14;62.53;98999.06;5050594;28;20139;-42
2022/08/21 08:45:23;;;;;;;10.40;7.40;;;;;;;25.96;63.91;99002.97;5050439;28;20111;-43
2022/08/21 08:48:05;;;;;;;12.15;7.38;;;;;;;25.92;64.18;98991.91;5050806;28;20064;-43
2022/08/21 08:50:41;;;;;;;12.50;6.88;;;;;;;26.11;63.00;98996.19;5050430;28;20078;-43
2022/08/21 08:53:15;;;;;;;14.70;7.32;;;;;;;26.50;61.41;98986.09;5051062;28;20492;-42
2022/08/21 08:55:43;;;;;;;12.68;8.05;;;;;;;26.48;62.55;98986.44;5050842;28;20023;-42
2022/08/21 08:58:16;;;;;;;13.75;7.60;;;;;;;25.96;63.79;98988.53;5051076;28;20079;-44
2022/08/21 09:00:43;;;;;;;13.50;7.85;;;;;;;25.82;64.76;98981.31;5051003;28;20033;-42
2022/08/21 09:03:08;;;;;;;11.68;7.18;;;;;;;25.97;64.65;98974.59;5048915;28;20094;-43
2022/08/21 09:06:05;;;;;;;14.52;6.93;;;;;;;26.20;62.71;98983.34;5050205;28;20025;-42
2022/08/21 09:08:54;;;;;;;11.18;6.35;;;;;;;26.23;63.48;98981.88;5050320;28;20554;-44
2022/08/21 09:11:33;;;;;;;10.77;6.82;;;;;;;26.12;63.50;98984.16;5050182;28;20110;-43
2022/08/21 09:14:17;;;;;;;9.60;6.05;;;;;;;26.20;63.37;98983.34;5050794;28;20083;-44
2022/08/21 09:17:01;;;;;;;12.52;5.72;;;;;;;26.45;61.64;98976.19;5050463;28;20139;-42
2022/08/21 09:19:38;;;;;;;13.43;6.10;;;;;;;26.90;60.53;98972.09;5050232;28;20029;-43
2022/08/21 09:22:42;;;;;;;10.20;6.25;;;;;;;26.68;60.99;98979.47;5050333;28;20025;-43
2022/08/21 09:25:23;;;;;;;17.42;10.20;;;;;;;26.56;61.39;98965.72;5050041;28;20017;-46
2022/08/21 09:27:50;;;;;;;9.63;6.65;;;;;;;26.84;59.84;98971.50;5049769;28;20146;-43
2022/08/21 09:30:17;;;;;;;11.55;6.60;;;;;;;27.36;58.39;98961.38;5049885;28;20130;-42
2022/08/21 09:32:43;;;;;;;8.38;6.65;;;;;;;27.03;59.68;98956.63;5049975;28;20373;-45
2022/08/21 09:35:08;;;;;;;9.18;6.40;;;;;;;26.93;60.10;98949.63;5050319;28;20025;-42
2022/08/21 09:37:56;;;;;;;12.10;6.50;;;;;;;27.07;59.62;98946.63;5049856;28;20059;-43
2022/08/21 09:40:45;;;;;;;12.63;6.68;;;;;;;27.27;57.94;98947.78;5042281;28;20062;-43
2022/08/21 09:43:10;;;;;;;14.15;6.57;;;;;;;27.85;55.37;98945.16;5049572;28;20384;-46
2022/08/21 09:45:36;;;;;;;13.98;7.50;;;;;;;27.34;57.91;98952.72;5049152;28;20032;-43
2022/08/21 09:48:29;;;;;;;10.13;6.45;;;;;;;27.13;57.67;98945.31;5048554;28;20572;-42
2022/08/21 09:51:06;;;;;;;12.18;7.22;;;;;;;27.22;57.03;98943.28;5037069;28;20121;-45
2022/08/21 09:53:33;;;;;;;12.70;8.25;;;;;;;26.98;57.76;98938.50;5047877;28;20032;-44
2022/08/21 09:59:00;;;;;;;11.52;7.20;;;;;;;27.34;58.48;98948.06;5048653;28;20079;-43
2022/08/21 10:01:26;;;;;;;19.25;11.80;;;;;;;27.26;57.00;98947.00;5049263;28;20394;-42
2022/08/21 10:04:31;;;;;;;23.50;18.38;;;;;;;27.42;57.68;98960.03;5048666;28;20660;-42
2022/08/21 10:07:08;;;;;;;9.23;7.47;;;;;;;27.99;56.26;98953.88;5042429;28;20040;-43
2022/08/21 10:09:34;;;;;;;13.18;7.60;;;;;;;28.50;55.36;98958.25;5046475;28;20048;-45
2022/08/21 10:12:14;;;;;;;12.65;7.75;;;;;;;27.81;56.98;98955.16;5049182;28;20037;-42
2022/08/21 10:14:44;;;;;;;13.85;7.70;;;;;;;27.61;57.55;98957.63;5048742;28;20049;-42
2022/08/21 10:17:21;;;;;;;11.90;7.70;;;;;;;27.79;56.81;98954.69;5049349;28;20233;-44
2022/08/21 10:20:06;;;;;;;30.58;21.50;;;;;;;27.92;57.02;98955.56;5048658;28;20091;-44
2022/08/21 10:22:41;;;;;;;20.13;13.65;;;;;;;28.10;56.44;98951.47;5048573;28;20060;-43
2022/08/21 10:25:23;;;;;;;12.15;7.80;;;;;;;27.82;57.72;98952.09;5048601;28;20025;-43
2022/08/21 10:28:13;;;;;;;13.15;7.70;;;;;;;27.72;59.10;98946.25;5048546;28;20036;-43
2022/08/21 10:30:44;;;;;;;12.52;7.15;;;;;;;27.59;60.24;98946.22;5047110;28;20052;-42
2022/08/21 10:33:22;;;;;;;13.57;8.05;;;;;;;28.24;57.47;98957.44;5048639;28;20083;-45
2022/08/21 10:36:05;;;;;;;13.25;7.57;;;;;;;27.72;58.44;98949.81;5049028;28;20048;-45
2022/08/21 10:38:54;;;;;;;14.13;7.93;;;;;;;27.43;60.11;98956.16;5049004;28;20032;-43
2022/08/21 10:41:44;;;;;;;10.88;7.30;;;;;;;27.31;60.12;98951.44;5028769;28;20037;-43
2022/08/21 10:44:31;;;;;;;14.75;6.68;;;;;;;26.98;60.36;98962.25;5028281;28;20021;-41
2022/08/21 10:47:32;;;;;;;10.13;6.90;;;;;;;27.46;59.27;98953.56;5048121;28;20113;-42
2022/08/21 10:50:16;;;;;;;11.23;6.50;;;;;;;26.90;60.77;98955.72;5047808;28;20103;-43
2022/08/21 10:53:11;;;;;;;15.32;7.20;;;;;;;26.83;61.64;98953.53;5046990;28;20021;-43
2022/08/21 10:55:43;;;;;;;11.82;6.80;;;;;;;27.08;60.26;98950.97;5046360;28;20021;-44
2022/08/21 10:58:24;;;;;;;14.25;7.05;;;;;;;27.59;58.84;98956.38;5046899;28;20040;-43
2022/08/21 11:00:54;;;;;;;14.50;7.53;;;;;;;26.92;61.86;98958.91;5048197;28;20043;-43
2022/08/21 11:03:28;;;;;;;14.77;7.15;;;;;;;26.81;61.82;98963.19;5049336;28;20025;-43
2022/08/21 11:06:00;;;;;;;15.90;10.52;;;;;;;26.71;62.09;98964.34;5048580;28;20108;-43
2022/08/21 11:08:39;;;;;;;14.95;7.85;;;;;;;27.02;61.19;98952.31;5047083;28;20687;-42
2022/08/21 11:11:07;;;;;;;12.80;8.30;;;;;;;27.45;59.18;98959.34;5047160;28;20025;-43
2022/08/21 11:13:40;;;;;;;16.23;8.20;;;;;;;26.92;60.29;98954.28;5046944;28;20121;-46
2022/08/21 11:16:13;;;;;;;13.50;7.82;;;;;;;26.82;61.29;98951.94;5048219;28;20520;-42
2022/08/21 11:18:53;;;;;;;12.95;9.02;;;;;;;27.00;61.01;98954.56;5047453;28;20552;-42
2022/08/21 11:21:39;;;;;;;15.70;8.57;;;;;;;27.20;60.28;98955.69;5046735;28;20025;-42
2022/08/21 11:24:14;;;;;;;15.70;11.15;;;;;;;27.81;57.76;98953.22;5045958;28;20035;-45
2022/08/21 11:27:04;;;;;;;15.13;10.15;;;;;;;27.61;58.95;98941.22;5047048;28;20484;-44
2022/08/21 11:29:37;;;;;;;12.45;8.60;;;;;;;27.41;59.26;98950.25;5045439;28;20036;-42
2022/08/21 11:32:20;;;;;;;16.10;11.48;;;;;;;27.48;59.58;98940.38;5046819;28;20052;-43
2022/08/21 11:34:58;;;;;;;24.45;15.05;;;;;;;27.57;59.18;98947.69;5028050;28;20349;-43
2022/08/21 11:37:55;;;;;;;16.20;8.82;;;;;;;28.01;58.13;98942.59;5028276;28;20036;-45
2022/08/21 11:40:31;;;;;;;16.05;9.10;;;;;;;27.66;58.80;98932.00;5042321;28;20029;-45